Terminal Aerodrome Forecast
Issued by NWS

Home | Current Version | Previous Version | Text Only | Print | Product List | Glossary On
Versions: 1 2 3 4 5 6 7 8 9 10 11 12 13
000
FTUS42 KMLB 060737 AAA
TAFLEE
TAF AMD
KLEE 060737Z 0608/0706 20007KT P6SM VCSH FEW010 OVC100
      WS020/21035KT
      TEMPO 0610/0614 OVC008
     FM061500 23015G22KT P6SM VCSH SCT020 BKN040
     FM062200 27010KT P6SM SCT050
     FM070200 27005KT P6SM SCT025=

USA.gov is the U.S. government's official web portal to all federal, state and local government web resources and services.